sensor_id;sensor_type;location;lat;lon;timestamp;temperature;humidity
1524;DHT22;755;53.658;10.118;2023-03-14T00:02:44;11.00;99.90
1524;DHT22;755;53.658;10.118;2023-03-14T00:12:46;10.90;99.90
1524;DHT22;755;53.658;10.118;2023-03-14T00:22:50;10.90;99.90
1524;DHT22;755;53.658;10.118;2023-03-14T00:32:52;10.80;99.90
1524;DHT22;755;53.658;10.118;2023-03-14T00:42:55;10.90;99.90
1524;DHT22;755;53.658;10.118;2023-03-14T00:52:57;10.80;99.90
1524;DHT22;755;53.658;10.118;2023-03-14T01:03:00;10.80;99.90
1524;DHT22;755;53.658;10.118;2023-03-14T01:13:02;10.80;99.90
1524;DHT22;755;53.658;10.118;2023-03-14T01:23:06;10.90;99.90
1524;DHT22;755;53.658;10.118;2023-03-14T01:33:08;10.90;99.90
1524;DHT22;755;53.658;10.118;2023-03-14T01:43:16;11.10;99.90
1524;DHT22;755;53.658;10.118;2023-03-14T01:53:18;11.10;99.90
1524;DHT22;755;53.658;10.118;2023-03-14T02:03:23;11.00;99.90
1524;DHT22;755;53.658;10.118;2023-03-14T02:13:26;10.90;99.90
1524;DHT22;755;53.658;10.118;2023-03-14T02:23:36;10.80;99.90
1524;DHT22;755;53.658;10.118;2023-03-14T02:33:45;10.60;99.90
1524;DHT22;755;53.658;10.118;2023-03-14T02:43:47;10.40;99.90
1524;DHT22;755;53.658;10.118;2023-03-14T02:53:50;10.30;99.90
1524;DHT22;755;53.658;10.118;2023-03-14T03:03:53;10.30;99.90
1524;DHT22;755;53.658;10.118;2023-03-14T03:13:56;10.30;99.90
1524;DHT22;755;53.658;10.118;2023-03-14T03:23:58;10.40;99.90
1524;DHT22;755;53.658;10.118;2023-03-14T03:34:02;10.60;99.90
1524;DHT22;755;53.658;10.118;2023-03-14T03:44:04;10.60;99.90
1524;DHT22;755;53.658;10.118;2023-03-14T04:54:39;10.60;99.90
1524;DHT22;755;53.658;10.118;2023-03-14T05:04:41;10.70;99.90
1524;DHT22;755;53.658;10.118;2023-03-14T05:14:44;10.70;99.90
1524;DHT22;755;53.658;10.118;2023-03-14T05:24:46;10.20;99.90
1524;DHT22;755;53.658;10.118;2023-03-14T05:34:49;9.80;99.90
1524;DHT22;755;53.658;10.118;2023-03-14T05:44:51;9.20;99.90
1524;DHT22;755;53.658;10.118;2023-03-14T05:54:54;9.00;99.90
1524;DHT22;755;53.658;10.118;2023-03-14T06:04:56;9.00;99.90
1524;DHT22;755;53.658;10.118;2023-03-14T06:15:00;9.00;99.90
1524;DHT22;755;53.658;10.118;2023-03-14T06:25:02;9.10;99.90
1524;DHT22;755;53.658;10.118;2023-03-14T06:35:07;9.10;99.90
1524;DHT22;755;53.658;10.118;2023-03-14T06:45:10;9.10;99.90
1524;DHT22;755;53.658;10.118;2023-03-14T06:55:16;9.10;99.90
1524;DHT22;755;53.658;10.118;2023-03-14T07:05:18;9.20;99.90
1524;DHT22;755;53.658;10.118;2023-03-14T07:15:22;9.30;99.90
1524;DHT22;755;53.658;10.118;2023-03-14T07:25:24;9.30;99.90
1524;DHT22;755;53.658;10.118;2023-03-14T07:35:27;9.40;99.90
1524;DHT22;755;53.658;10.118;2023-03-14T07:45:29;9.50;99.90
1524;DHT22;755;53.658;10.118;2023-03-14T07:55:32;9.60;99.90
1524;DHT22;755;53.658;10.118;2023-03-14T08:05:35;9.60;99.90
1524;DHT22;755;53.658;10.118;2023-03-14T08:15:38;9.40;99.90
1524;DHT22;755;53.658;10.118;2023-03-14T08:25:40;9.50;99.90
1524;DHT22;755;53.658;10.118;2023-03-14T08:35:43;9.70;99.90
1524;DHT22;755;53.658;10.118;2023-03-14T08:45:45;9.90;99.90
1524;DHT22;755;53.658;10.118;2023-03-14T08:55:52;10.00;99.90
1524;DHT22;755;53.658;10.118;2023-03-14T09:05:54;10.10;99.90
1524;DHT22;755;53.658;10.118;2023-03-14T09:15:57;10.00;99.90
1524;DHT22;755;53.658;10.118;2023-03-14T09:26:00;10.00;99.90
1524;DHT22;755;53.658;10.118;2023-03-14T09:36:04;9.80;99.90
1524;DHT22;755;53.658;10.118;2023-03-14T09:46:09;9.90;99.90
1524;DHT22;755;53.658;10.118;2023-03-14T09:56:16;9.70;99.90
1524;DHT22;755;53.658;10.118;2023-03-14T10:06:18;9.90;99.90
1524;DHT22;755;53.658;10.118;2023-03-14T10:16:28;8.60;99.90
1524;DHT22;755;53.658;10.118;2023-03-14T10:26:34;8.20;99.90
1524;DHT22;755;53.658;10.118;2023-03-14T10:36:37;7.60;99.90
1524;DHT22;755;53.658;10.118;2023-03-14T10:46:39;6.90;99.90
1524;DHT22;755;53.658;10.118;2023-03-14T10:56:43;6.00;99.90
1524;DHT22;755;53.658;10.118;2023-03-14T11:06:49;5.70;99.90
1524;DHT22;755;53.658;10.118;2023-03-14T11:17:00;5.20;99.90
1524;DHT22;755;53.658;10.118;2023-03-14T11:27:10;5.00;99.90
1524;DHT22;755;53.658;10.118;2023-03-14T11:37:19;4.90;99.90
1524;DHT22;755;53.658;10.118;2023-03-14T11:47:28;4.60;99.90
1524;DHT22;755;53.658;10.118;2023-03-14T11:57:32;5.00;99.90
1524;DHT22;755;53.658;10.118;2023-03-14T12:07:41;5.10;99.90
1524;DHT22;755;53.658;10.118;2023-03-14T12:17:53;5.20;99.90
1524;DHT22;755;53.658;10.118;2023-03-14T12:28:17;5.30;99.90
1524;DHT22;755;53.658;10.118;2023-03-14T12:38:29;5.40;99.90
1524;DHT22;755;53.658;10.118;2023-03-14T12:48:33;5.30;99.90
1524;DHT22;755;53.658;10.118;2023-03-14T12:58:38;5.60;99.90
1524;DHT22;755;53.658;10.118;2023-03-14T13:08:42;5.80;99.90
1524;DHT22;755;53.658;10.118;2023-03-14T13:18:46;5.60;99.90
1524;DHT22;755;53.658;10.118;2023-03-14T13:28:49;5.60;99.90
1524;DHT22;755;53.658;10.118;2023-03-14T13:38:57;5.80;99.90
1524;DHT22;755;53.658;10.118;2023-03-14T13:49:02;5.90;1.00
1524;DHT22;755;53.658;10.118;2023-03-14T13:59:24;5.90;56.40
1524;DHT22;755;53.658;10.118;2023-03-14T14:09:27;5.90;1.00
1524;DHT22;755;53.658;10.118;2023-03-14T14:19:33;6.00;99.90
1524;DHT22;755;53.658;10.118;2023-03-14T14:29:35;6.50;99.90
1524;DHT22;755;53.658;10.118;2023-03-14T14:39:39;6.50;1.00
1524;DHT22;755;53.658;10.118;2023-03-14T14:49:41;6.30;99.90
1524;DHT22;755;53.658;10.118;2023-03-14T14:59:44;6.00;99.90
1524;DHT22;755;53.658;10.118;2023-03-14T15:09:46;6.00;1.00
1524;DHT22;755;53.658;10.118;2023-03-14T15:19:50;6.30;1.00
1524;DHT22;755;53.658;10.118;2023-03-14T15:29:52;6.00;1.00
1524;DHT22;755;53.658;10.118;2023-03-14T15:39:55;6.10;1.00
1524;DHT22;755;53.658;10.118;2023-03-14T15:49:58;5.90;99.90
1524;DHT22;755;53.658;10.118;2023-03-14T16:00:02;5.90;1.00
1524;DHT22;755;53.658;10.118;2023-03-14T16:10:11;5.80;1.00
1524;DHT22;755;53.658;10.118;2023-03-14T16:20:15;5.50;1.00
1524;DHT22;755;53.658;10.118;2023-03-14T16:30:20;5.60;1.00
1524;DHT22;755;53.658;10.118;2023-03-14T16:40:23;5.60;1.00
1524;DHT22;755;53.658;10.118;2023-03-14T16:50:25;5.20;1.00
1524;DHT22;755;53.658;10.118;2023-03-14T17:00:28;4.90;98.20
1524;DHT22;755;53.658;10.118;2023-03-14T17:10:30;4.80;99.90
1524;DHT22;755;53.658;10.118;2023-03-14T17:20:33;4.60;99.90
1524;DHT22;755;53.658;10.118;2023-03-14T17:30:35;4.40;99.90
1524;DHT22;755;53.658;10.118;2023-03-14T17:40:39;4.20;99.90
1524;DHT22;755;53.658;10.118;2023-03-14T17:50:41;4.20;1.00
1524;DHT22;755;53.658;10.118;2023-03-14T18:00:44;4.20;99.90
1524;DHT22;755;53.658;10.118;2023-03-14T18:10:46;3.80;41.60
1524;DHT22;755;53.658;10.118;2023-03-14T18:20:50;3.70;1.00
1524;DHT22;755;53.658;10.118;2023-03-14T18:30:52;3.60;99.90
1524;DHT22;755;53.658;10.118;2023-03-14T18:40:55;3.50;99.90
1524;DHT22;755;53.658;10.118;2023-03-14T18:50:57;3.60;1.00
1524;DHT22;755;53.658;10.118;2023-03-14T19:01:02;3.40;1.00
1524;DHT22;755;53.658;10.118;2023-03-14T19:11:06;3.00;1.00
1524;DHT22;755;53.658;10.118;2023-03-14T19:21:11;2.70;99.90
1524;DHT22;755;53.658;10.118;2023-03-14T19:31:13;2.60;1.00
1524;DHT22;755;53.658;10.118;2023-03-14T19:41:17;2.60;99.90
1524;DHT22;755;53.658;10.118;2023-03-14T19:51:20;2.50;99.90
1524;DHT22;755;53.658;10.118;2023-03-14T20:01:24;2.50;99.90
1524;DHT22;755;53.658;10.118;2023-03-14T20:11:26;2.50;99.90
1524;DHT22;755;53.658;10.118;2023-03-14T20:21:29;2.50;99.90
1524;DHT22;755;53.658;10.118;2023-03-14T20:31:31;2.50;99.90
1524;DHT22;755;53.658;10.118;2023-03-14T20:41:37;2.70;1.00
1524;DHT22;755;53.658;10.118;2023-03-14T20:51:41;2.50;99.90
1524;DHT22;755;53.658;10.118;2023-03-14T21:01:44;2.00;99.90
1524;DHT22;755;53.658;10.118;2023-03-14T21:11:47;1.90;99.90
1524;DHT22;755;53.658;10.118;2023-03-14T21:21:50;1.80;99.90
1524;DHT22;755;53.658;10.118;2023-03-14T21:31:52;1.80;99.90
1524;DHT22;755;53.658;10.118;2023-03-14T21:41:56;1.80;99.90
1524;DHT22;755;53.658;10.118;2023-03-14T21:51:58;1.70;99.90
1524;DHT22;755;53.658;10.118;2023-03-14T22:02:09;1.60;99.90
1524;DHT22;755;53.658;10.118;2023-03-14T22:12:12;1.60;99.90
1524;DHT22;755;53.658;10.118;2023-03-14T22:22:19;1.70;99.90
1524;DHT22;755;53.658;10.118;2023-03-14T22:32:22;1.70;99.90
1524;DHT22;755;53.658;10.118;2023-03-14T22:42:25;1.50;99.90
1524;DHT22;755;53.658;10.118;2023-03-14T23:03:31;1.20;99.90
1524;DHT22;755;53.658;10.118;2023-03-14T23:13:34;1.20;99.90
1524;DHT22;755;53.658;10.118;2023-03-14T23:23:38;1.30;99.90
1524;DHT22;755;53.658;10.118;2023-03-14T23:33:41;1.30;99.90
1524;DHT22;755;53.658;10.118;2023-03-14T23:43:46;1.10;99.90
1524;DHT22;755;53.658;10.118;2023-03-14T23:53:48;1.00;99.90
